Time;durP1;ratioP1;P1;durP2;ratioP2;P2;SDS_P1;SDS_P2;PMS_P1;PMS_P2;Temp;Humidity;BMP_temperature;BMP_pressure;BME280_temperature;BME280_humidity;BME280_pressure;Samples;Min_cycle;Max_cycle;Signal;HPM_P1;HPM_P2
2021/07/18 00:00:11;;;;;;;5.90;3.00;;;;;;;30.14;39.04;99973.00;143729;590;47002;-65
2021/07/18 00:02:38;;;;;;;9.50;3.00;;;;;;;30.14;39.30;99967.47;143705;574;48004;-65
2021/07/18 00:05:06;;;;;;;5.45;3.03;;;;;;;30.15;39.71;99969.87;143723;582;48004;-65
2021/07/18 00:07:34;;;;;;;10.73;3.33;;;;;;;30.15;39.45;99964.31;143722;587;47006;-64
2021/07/18 00:10:01;;;;;;;9.73;3.80;;;;;;;30.15;39.18;99966.31;143726;651;47004;-65
2021/07/18 00:12:29;;;;;;;5.68;2.90;;;;;;;30.15;39.75;99964.31;143724;588;47010;-65
2021/07/18 00:14:56;;;;;;;10.18;3.55;;;;;;;30.17;39.65;99969.53;143721;702;47002;-65
2021/07/18 00:17:23;;;;;;;5.30;3.25;;;;;;;30.18;40.04;99960.84;143722;598;46008;-65
2021/07/18 00:19:50;;;;;;;6.75;3.35;;;;;;;30.15;39.65;99964.31;143727;650;47004;-64
2021/07/18 00:22:17;;;;;;;10.00;3.53;;;;;;;30.16;38.84;99959.62;143723;572;47010;-65
2021/07/18 00:24:45;;;;;;;4.55;3.30;;;;;;;30.17;38.98;99964.00;143725;601;47002;-64
2021/07/18 00:27:12;;;;;;;7.75;3.28;;;;;;;30.16;38.06;99960.41;143723;578;47004;-64
2021/07/18 00:29:43;;;;;;;5.50;2.90;;;;;;;30.14;37.75;99961.91;143729;568;47004;-64
2021/07/18 00:32:11;;;;;;;5.50;3.25;;;;;;;30.10;37.66;99959.84;143719;575;50002;-65
2021/07/18 00:34:38;;;;;;;6.82;3.05;;;;;;;30.10;37.65;99959.84;143724;596;47004;-64
2021/07/18 00:37:05;;;;;;;7.22;3.92;;;;;;;30.10;37.72;99959.84;143714;646;46008;-65
2021/07/18 00:39:32;;;;;;;4.62;3.08;;;;;;;30.10;37.66;99964.56;143728;648;47002;-64
2021/07/18 00:42:00;;;;;;;4.85;3.47;;;;;;;30.08;37.67;99962.16;143723;580;49008;-65
2021/07/18 00:44:27;;;;;;;5.18;3.10;;;;;;;30.06;37.01;99969.22;143724;589;47004;-64
2021/07/18 00:46:54;;;;;;;6.05;3.22;;;;;;;30.07;37.51;99962.53;143724;643;45926;-64
2021/07/18 00:49:22;;;;;;;6.82;2.85;;;;;;;30.05;38.35;99960.09;143727;618;47002;-64
2021/07/18 00:51:49;;;;;;;4.87;3.30;;;;;;;30.03;38.16;99967.94;143724;574;47010;-65
2021/07/18 00:54:17;;;;;;;8.50;3.28;;;;;;;30.02;38.79;99954.44;143723;642;47004;-64
2021/07/18 00:56:44;;;;;;;5.18;3.72;;;;;;;29.99;39.53;99955.13;143725;576;46002;-64
2021/07/18 00:59:12;;;;;;;8.20;3.05;;;;;;;29.97;39.64;99957.44;143728;586;47004;-65
2021/07/18 01:01:39;;;;;;;7.05;3.40;;;;;;;29.94;40.45;99951.41;143723;577;48008;-65
2021/07/18 01:04:07;;;;;;;7.12;3.28;;;;;;;29.92;40.59;99950.16;143724;568;47002;-64
2021/07/18 01:06:36;;;;;;;9.45;3.72;;;;;;;29.91;40.85;99954.91;143724;595;47005;-63
2021/07/18 01:09:04;;;;;;;5.30;3.25;;;;;;;29.90;41.27;99946.94;143726;567;47002;-63
2021/07/18 01:11:31;;;;;;;7.47;3.78;;;;;;;29.85;40.90;99953.53;143720;686;48022;-64
2021/07/18 01:13:59;;;;;;;5.55;3.47;;;;;;;29.82;40.09;99947.87;143724;680;47004;-64
2021/07/18 01:16:26;;;;;;;7.05;3.53;;;;;;;29.81;40.70;99949.84;143725;573;46002;-64
2021/07/18 01:18:53;;;;;;;7.95;3.33;;;;;;;29.84;40.25;99948.31;143728;738;47002;-63
2021/07/18 01:21:25;;;;;;;5.78;3.40;;;;;;;29.85;39.78;99944.41;143724;589;47010;-64
2021/07/18 01:23:53;;;;;;;6.60;3.92;;;;;;;29.85;39.86;99945.22;143725;593;47002;-64
2021/07/18 01:26:21;;;;;;;5.97;3.30;;;;;;;29.83;39.63;99953.06;143726;760;46007;-65
2021/07/18 01:28:48;;;;;;;17.58;4.00;;;;;;;29.84;39.60;99949.16;143727;583;47004;-64
2021/07/18 01:31:16;;;;;;;8.05;3.10;;;;;;;29.85;37.57;99942.47;143725;585;47010;-65
2021/07/18 01:33:43;;;;;;;4.90;3.42;;;;;;;29.85;37.86;99944.41;143722;589;47002;-65
2021/07/18 01:36:11;;;;;;;6.55;3.20;;;;;;;29.83;38.57;99943.97;143724;605;46993;-64
2021/07/18 01:38:38;;;;;;;6.28;3.33;;;;;;;29.82;38.78;99943.16;143727;593;47004;-64
2021/07/18 01:41:05;;;;;;;7.20;3.25;;;;;;;29.82;39.23;99945.13;143724;600;47008;-65
2021/07/18 01:43:33;;;;;;;4.32;3.60;;;;;;;29.79;39.21;99943.84;143725;592;47004;-64
2021/07/18 01:46:00;;;;;;;9.43;3.90;;;;;;;29.76;39.50;99939.81;143718;568;49004;-65
2021/07/18 01:48:27;;;;;;;5.87;3.42;;;;;;;29.75;39.66;99938.19;143726;591;48002;-64
2021/07/18 01:50:55;;;;;;;7.53;3.62;;;;;;;29.72;38.53;99940.87;143724;567;47008;-65
2021/07/18 01:53:22;;;;;;;6.78;3.55;;;;;;;29.70;38.73;99935.66;143723;589;47004;-64
2021/07/18 01:55:58;;;;;;;7.43;2.80;;;;;;;29.68;37.96;99939.94;143724;579;47004;-64
2021/07/18 01:58:30;;;;;;;4.35;3.45;;;;;;;29.65;37.66;99939.47;143727;586;47003;-65
2021/07/18 02:00:57;;;;;;;8.68;3.85;;;;;;;29.65;37.97;99941.47;143721;725;47010;-64
2021/07/18 02:03:25;;;;;;;10.10;3.42;;;;;;;29.66;37.44;99940.28;143724;597;47004;-64
2021/07/18 02:05:52;;;;;;;10.30;3.40;;;;;;;29.63;37.42;99943.75;143720;659;47002;-64
2021/07/18 02:08:19;;;;;;;5.10;3.22;;;;;;;29.60;37.40;99942.47;143729;569;46006;-64
2021/07/18 02:10:47;;;;;;;8.38;3.87;;;;;;;29.60;37.88;99942.47;143723;725;47010;-65
2021/07/18 02:13:18;;;;;;;7.32;3.17;;;;;;;29.59;37.93;99948.37;143725;594;47002;-66
2021/07/18 02:15:45;;;;;;;5.70;2.95;;;;;;;29.59;37.06;99951.12;143728;569;45924;-64
2021/07/18 02:18:13;;;;;;;11.95;3.65;;;;;;;29.57;36.96;99945.13;143728;747;47002;-64
2021/07/18 02:20:41;;;;;;;6.80;3.47;;;;;;;29.56;37.69;99947.13;143715;595;49002;-64
2021/07/18 02:23:08;;;;;;;4.28;3.12;;;;;;;29.56;37.69;99943.53;143725;582;47004;-64
2021/07/18 02:25:36;;;;;;;4.78;3.22;;;;;;;29.52;37.50;99948.13;143725;588;45918;-65
2021/07/18 02:28:04;;;;;;;6.62;3.28;;;;;;;29.51;37.54;99950.09;143725;656;47004;-64
2021/07/18 02:30:31;;;;;;;5.05;3.00;;;;;;;29.50;37.89;99946.50;143726;601;46013;-64
2021/07/18 02:32:58;;;;;;;5.43;2.83;;;;;;;29.50;37.66;99949.28;143722;588;48002;-64
2021/07/18 02:35:26;;;;;;;7.40;3.08;;;;;;;29.46;37.77;99950.31;143722;583;46004;-64
2021/07/18 02:37:53;;;;;;;5.03;2.90;;;;;;;29.46;38.02;99955.84;143724;614;47004;-64
2021/07/18 02:40:22;;;;;;;6.72;3.28;;;;;;;29.46;38.12;99951.16;143724;600;48008;-64
2021/07/18 02:42:50;;;;;;;6.62;3.05;;;;;;;29.44;37.62;99947.09;143724;660;47004;-65
2021/07/18 02:45:20;;;;;;;4.85;2.72;;;;;;;29.44;37.94;99949.88;143727;605;46004;-64
2021/07/18 02:47:48;;;;;;;9.05;3.17;;;;;;;29.45;37.93;99945.94;143727;579;47002;-64
2021/07/18 02:50:18;;;;;;;5.68;3.08;;;;;;;29.43;38.38;99943.53;143719;572;47014;-65
2021/07/18 02:52:46;;;;;;;5.60;3.35;;;;;;;29.42;38.51;99947.47;143725;679;47004;-64
2021/07/18 02:55:14;;;;;;;5.65;3.15;;;;;;;29.42;38.56;99947.47;143726;747;45918;-65
2021/07/18 02:57:41;;;;;;;9.25;4.05;;;;;;;29.41;38.28;99943.06;143728;586;46569;-64
2021/07/18 03:00:10;;;;;;;6.25;3.30;;;;;;;29.42;38.38;99947.47;143726;593;47010;-64
2021/07/18 03:02:37;;;;;;;8.55;3.17;;;;;;;29.41;37.79;99953.31;143725;663;47004;-64
2021/07/18 03:05:06;;;;;;;9.00;2.87;;;;;;;29.43;37.93;99954.59;143726;599;46002;-64
2021/07/18 03:07:33;;;;;;;5.37;2.75;;;;;;;29.37;38.08;99950.44;143728;671;47004;-64
2021/07/18 03:10:00;;;;;;;9.43;3.08;;;;;;;29.36;38.48;99954.34;143724;601;47018;-65
2021/07/18 03:12:28;;;;;;;10.05;3.55;;;;;;;29.36;38.56;99956.31;143723;665;47002;-64
2021/07/18 03:14:55;;;;;;;7.65;2.87;;;;;;;29.34;38.56;99957.44;143722;572;46006;-64
2021/07/18 03:17:23;;;;;;;6.37;3.08;;;;;;;29.32;39.80;99954.22;143728;574;47004;-65
2021/07/18 03:19:51;;;;;;;19.10;4.95;;;;;;;29.31;40.04;99966.44;143718;681;51015;-64
2021/07/18 03:22:19;;;;;;;8.82;4.00;;;;;;;29.29;39.87;99962.41;143725;624;47002;-64
2021/07/18 03:24:46;;;;;;;7.30;3.55;;;;;;;29.27;40.37;99961.94;143726;669;45924;-65
2021/07/18 03:27:15;;;;;;;11.63;3.85;;;;;;;29.27;41.13;99959.19;143726;643;47004;-65
2021/07/18 03:29:42;;;;;;;9.07;3.42;;;;;;;29.27;41.05;99959.19;143726;656;46011;-64
2021/07/18 03:32:10;;;;;;;5.82;4.05;;;;;;;29.27;40.75;99968.25;143724;610;47004;-65
2021/07/18 03:34:37;;;;;;;12.98;3.67;;;;;;;29.28;40.55;99961.59;143726;575;46002;-64
2021/07/18 03:37:04;;;;;;;8.48;3.17;;;;;;;29.31;40.74;99968.38;143727;585;47004;-64
2021/07/18 03:39:32;;;;;;;10.85;3.60;;;;;;;29.30;40.95;99975.09;143723;573;47008;-64
2021/07/18 03:41:59;;;;;;;9.38;3.03;;;;;;;29.30;40.13;99973.13;143726;572;46010;-64
2021/07/18 03:44:27;;;;;;;6.97;4.22;;;;;;;29.36;40.41;99975.69;143726;583;46004;-64
2021/07/18 03:46:54;;;;;;;9.13;4.00;;;;;;;29.36;40.89;99972.94;143724;603;48002;-64
2021/07/18 03:49:21;;;;;;;7.60;3.42;;;;;;;29.39;40.89;99977.78;143723;568;47010;-64
2021/07/18 03:51:48;;;;;;;8.38;3.55;;;;;;;29.39;41.07;99972.25;143725;597;47004;-64
2021/07/18 03:54:16;;;;;;;10.32;3.45;;;;;;;29.41;41.14;99972.69;143719;599;48994;-64
2021/07/18 03:56:43;;;;;;;11.27;3.65;;;;;;;29.41;39.89;99978.22;143728;594;47006;-64
2021/07/18 03:59:10;;;;;;;10.07;3.42;;;;;;;29.37;40.35;99972.56;143723;606;47011;-65
2021/07/18 04:01:37;;;;;;;6.55;3.50;;;;;;;29.38;41.20;99976.94;143724;609;47002;-65
2021/07/18 04:04:05;;;;;;;8.88;3.67;;;;;;;29.39;41.07;99977.78;143726;605;45924;-65
2021/07/18 04:06:35;;;;;;;12.05;4.15;;;;;;;29.37;40.53;99985.59;143730;585;46013;-64
2021/07/18 04:09:04;;;;;;;8.45;3.67;;;;;;;29.37;40.58;99975.34;143727;588;46004;-65
2021/07/18 04:11:31;;;;;;;12.05;3.95;;;;;;;29.40;41.04;99973.81;143726;584;47004;-65
2021/07/18 04:13:58;;;;;;;9.38;3.42;;;;;;;29.41;41.14;99979.03;143722;592;46005;-66
2021/07/18 04:16:25;;;;;;;8.52;3.92;;;;;;;29.42;41.17;99982.59;143727;584;47006;-64
2021/07/18 04:18:52;;;;;;;10.07;4.57;;;;;;;29.43;40.75;99976.72;143721;588;48008;-65
2021/07/18 04:21:21;;;;;;;6.43;3.60;;;;;;;29.47;39.69;99982.38;143723;597;47008;-64
2021/07/18 04:23:48;;;;;;;11.88;3.12;;;;;;;29.51;39.68;99983.31;143727;611;45924;-65
2021/07/18 04:26:16;;;;;;;6.37;3.55;;;;;;;29.52;40.30;99979.38;143727;583;47010;-64
2021/07/18 04:28:43;;;;;;;8.98;3.45;;;;;;;29.55;40.19;99986.19;143725;651;47009;-64
2021/07/18 04:31:10;;;;;;;10.48;3.25;;;;;;;29.59;40.70;99973.28;143720;590;47008;-65
2021/07/18 04:33:37;;;;;;;11.10;3.67;;;;;;;29.62;41.11;99975.34;143727;607;45924;-65
2021/07/18 04:36:04;;;;;;;10.57;3.40;;;;;;;29.64;41.00;99984.91;143725;586;48006;-64
2021/07/18 04:38:31;;;;;;;6.97;3.90;;;;;;;29.67;41.36;99979.84;143725;573;47010;-64
2021/07/18 04:40:58;;;;;;;8.70;3.70;;;;;;;29.71;41.24;99980.75;143723;603;47004;-64
2021/07/18 04:43:25;;;;;;;9.02;3.55;;;;;;;29.73;41.48;99976.50;143724;596;47000;-64
2021/07/18 04:45:53;;;;;;;6.70;3.78;;;;;;;29.76;41.68;99986.88;143729;666;47002;-64
2021/07/18 04:48:20;;;;;;;4.72;3.47;;;;;;;29.82;41.10;99981.09;143723;608;47022;-64
2021/07/18 04:50:47;;;;;;;10.30;3.70;;;;;;;29.86;41.29;99988.34;143723;670;48002;-64
2021/07/18 04:53:15;;;;;;;7.53;3.42;;;;;;;29.91;41.62;99988.13;143724;574;46002;-64
2021/07/18 04:55:42;;;;;;;5.32;3.90;;;;;;;29.96;41.48;99995.41;143727;572;47004;-64
2021/07/18 04:58:09;;;;;;;8.50;3.65;;;;;;;30.01;41.16;99994.37;143726;694;47917;-65
2021/07/18 05:00:37;;;;;;;6.82;3.83;;;;;;;30.06;41.30;99992.16;143722;595;49012;-64
2021/07/18 05:03:04;;;;;;;7.87;3.37;;;;;;;30.12;41.12;100001.03;143724;598;48004;-65
2021/07/18 05:05:32;;;;;;;9.50;4.00;;;;;;;30.14;40.91;99997.91;143728;595;47004;-63
2021/07/18 05:07:59;;;;;;;9.02;3.85;;;;;;;30.16;40.81;100007.47;143722;565;47008;-64
2021/07/18 05:10:29;;;;;;;9.93;4.28;;;;;;;30.21;40.79;100012.78;143724;611;47004;-65
2021/07/18 05:12:57;;;;;;;11.38;3.83;;;;;;;30.27;41.18;100007.00;143725;692;46002;-65
2021/07/18 05:15:26;;;;;;;6.20;3.80;;;;;;;30.32;41.81;100013.09;143725;599;49014;-65
2021/07/18 05:17:58;;;;;;;10.48;3.80;;;;;;;30.37;42.22;100009.28;143723;606;47012;-65
2021/07/18 05:20:25;;;;;;;5.57;3.50;;;;;;;30.42;42.10;100005.44;143724;598;47003;-64
2021/07/18 05:22:52;;;;;;;11.27;3.50;;;;;;;30.47;41.66;100006.00;143725;642;47002;-64
2021/07/18 05:25:20;;;;;;;9.10;3.70;;;;;;;30.52;41.79;100008.53;143727;580;47004;-65
2021/07/18 05:27:47;;;;;;;9.10;3.92;;;;;;;30.58;42.39;100016.63;143723;713;47008;-64
2021/07/18 05:30:15;;;;;;;6.78;3.90;;;;;;;30.62;42.39;100012.81;143725;596;47004;-65
2021/07/18 05:32:42;;;;;;;15.05;4.28;;;;;;;30.64;44.90;100013.25;143724;662;46004;-64
2021/07/18 05:35:10;;;;;;;6.68;3.42;;;;;;;30.67;44.26;100012.56;143726;606;47002;-65
2021/07/18 05:37:38;;;;;;;8.25;3.97;;;;;;;30.72;44.86;100011.50;143720;608;48002;-65
2021/07/18 05:40:10;;;;;;;7.07;3.92;;;;;;;30.70;44.78;100011.03;143725;603;47004;-65
2021/07/18 05:42:38;;;;;;;13.30;4.32;;;;;;;30.74;44.79;100016.66;143728;617;46004;-64
2021/07/18 05:45:07;;;;;;;9.05;4.03;;;;;;;30.78;44.11;100009.28;143728;584;47002;-65
2021/07/18 05:47:34;;;;;;;10.88;4.45;;;;;;;30.81;44.41;100011.34;143722;583;48002;-65
2021/07/18 05:50:02;;;;;;;8.70;3.40;;;;;;;30.84;43.81;100005.09;143727;618;47004;-64
2021/07/18 05:52:30;;;;;;;7.40;3.35;;;;;;;30.87;43.31;100006.34;143728;589;47000;-64
2021/07/18 05:54:57;;;;;;;9.10;3.75;;;;;;;30.86;43.49;100002.78;143728;590;47004;-66
2021/07/18 05:57:24;;;;;;;8.75;3.90;;;;;;;30.88;43.26;100007.94;143720;686;48011;-65
2021/07/18 05:59:51;;;;;;;7.30;4.07;;;;;;;30.94;42.99;99996.25;143725;582;48002;-65
2021/07/18 06:02:18;;;;;;;8.43;3.42;;;;;;;30.99;43.24;100014.56;143726;609;46002;-64
2021/07/18 06:04:45;;;;;;;4.37;3.30;;;;;;;31.03;43.87;100006.37;143729;567;47004;-64
2021/07/18 06:07:13;;;;;;;9.10;3.70;;;;;;;31.10;43.78;100012.09;143725;634;47013;-64
2021/07/18 06:09:40;;;;;;;5.30;3.35;;;;;;;31.15;43.84;100004.34;143725;761;47002;-65
2021/07/18 06:12:08;;;;;;;7.10;3.55;;;;;;;31.17;43.65;100012.31;143723;586;49006;-66
2021/07/18 06:14:35;;;;;;;9.88;3.47;;;;;;;31.24;44.03;100011.69;143728;567;47004;-64
2021/07/18 06:17:02;;;;;;;12.63;3.72;;;;;;;31.32;44.26;100005.19;143718;585;48012;-64
2021/07/18 06:19:29;;;;;;;6.90;4.10;;;;;;;31.37;42.97;100006.87;143725;590;47002;-65
2021/07/18 06:21:56;;;;;;;6.03;3.65;;;;;;;31.40;42.51;100009.72;143725;574;45922;-65
2021/07/18 06:24:23;;;;;;;7.80;4.62;;;;;;;31.44;43.06;100012.59;143728;576;47004;-65
2021/07/18 06:26:50;;;;;;;9.18;4.35;;;;;;;31.51;42.35;100017.50;143724;665;47009;-65
2021/07/18 06:29:18;;;;;;;13.07;5.05;;;;;;;31.57;42.55;100024.41;143725;579;47002;-65
2021/07/18 06:31:45;;;;;;;7.35;4.28;;;;;;;31.65;42.18;100022.59;143723;573;47004;-65
2021/07/18 06:34:12;;;;;;;6.45;4.22;;;;;;;31.67;42.05;100021.09;143727;608;48002;-64
2021/07/18 06:36:41;;;;;;;9.93;4.40;;;;;;;31.70;41.76;100017.63;143726;652;47010;-66
2021/07/18 06:39:08;;;;;;;7.55;5.00;;;;;;;31.75;41.32;100014.56;143727;568;47004;-65
2021/07/18 06:41:35;;;;;;;12.57;5.15;;;;;;;31.81;41.30;100017.09;143724;595;47002;-65
2021/07/18 06:44:03;;;;;;;9.98;5.62;;;;;;;31.83;41.19;100014.75;143729;567;47004;-64
2021/07/18 06:46:31;;;;;;;10.55;5.40;;;;;;;31.89;41.35;100019.66;143723;604;48010;-66
2021/07/18 06:48:58;;;;;;;10.35;5.10;;;;;;;31.90;40.34;100024.06;143724;585;47002;-65
2021/07/18 06:51:26;;;;;;;9.13;4.53;;;;;;;31.97;40.00;100014.25;143725;616;46016;-64
2021/07/18 06:53:54;;;;;;;9.07;5.18;;;;;;;32.02;40.07;100014.81;143729;594;47002;-64
2021/07/18 06:56:21;;;;;;;11.45;5.32;;;;;;;32.06;40.11;100012.88;143725;630;47008;-65
2021/07/18 06:58:48;;;;;;;9.15;5.40;;;;;;;32.08;40.10;100017.28;143726;588;47004;-65
2021/07/18 07:01:16;;;;;;;8.18;5.32;;;;;;;32.06;40.32;100012.09;143724;624;48005;-64
2021/07/18 07:03:43;;;;;;;15.27;5.50;;;;;;;32.01;39.65;100010.41;143727;575;47000;-66
2021/07/18 07:06:10;;;;;;;10.88;6.15;;;;;;;32.00;39.58;100010.75;143723;568;47013;-64
2021/07/18 07:08:38;;;;;;;8.02;5.97;;;;;;;32.03;40.21;100010.84;143726;570;47002;-64
2021/07/18 07:11:05;;;;;;;8.80;5.62;;;;;;;32.06;40.31;100012.09;143726;592;46004;-65
2021/07/18 07:13:33;;;;;;;12.02;5.87;;;;;;;32.05;40.29;100004.94;143729;567;47002;-64
2021/07/18 07:16:00;;;;;;;9.77;5.10;;;;;;;32.04;39.90;100012.44;143714;693;49010;-65
2021/07/18 07:18:27;;;;;;;10.15;5.25;;;;;;;32.07;40.16;100013.72;143723;573;48003;-64
2021/07/18 07:20:54;;;;;;;15.57;6.37;;;;;;;32.18;40.15;100009.19;143724;627;46002;-65
2021/07/18 07:23:21;;;;;;;9.32;4.60;;;;;;;32.31;39.46;100001.56;143730;585;47004;-66
2021/07/18 07:25:49;;;;;;;9.32;4.65;;;;;;;32.39;39.38;99999.72;143727;582;47009;-64
2021/07/18 07:28:16;;;;;;;9.32;5.28;;;;;;;32.43;38.61;99994.22;143724;585;48004;-65
2021/07/18 07:30:43;;;;;;;10.98;4.50;;;;;;;32.47;39.14;99995.94;143726;618;48006;-65
2021/07/18 07:33:12;;;;;;;6.32;4.70;;;;;;;32.52;38.81;99992.06;143722;566;46004;-65
2021/07/18 07:35:39;;;;;;;10.48;5.12;;;;;;;32.60;39.67;99984.66;143724;578;48010;-65
2021/07/18 07:38:08;;;;;;;5.72;4.25;;;;;;;32.55;38.57;99982.97;143727;610;46006;-64
2021/07/18 07:40:35;;;;;;;10.55;5.00;;;;;;;32.53;39.31;99971.44;143727;568;45918;-65
2021/07/18 07:43:03;;;;;;;6.82;4.43;;;;;;;32.51;38.93;99974.56;143728;585;47002;-64
2021/07/18 07:45:30;;;;;;;8.13;4.43;;;;;;;32.48;39.02;99972.50;143724;567;48008;-65
2021/07/18 07:47:57;;;;;;;6.93;4.28;;;;;;;32.52;39.57;99969.81;143727;582;47004;-65
2021/07/18 07:50:24;;;;;;;9.25;4.60;;;;;;;32.53;40.86;99967.81;143724;567;47006;-64
2021/07/18 07:52:51;;;;;;;6.57;4.28;;;;;;;32.48;39.95;99966.94;143729;742;47004;-63
2021/07/18 07:55:19;;;;;;;7.07;4.47;;;;;;;32.35;42.47;99962.72;143727;625;47010;-65
2021/07/18 07:57:46;;;;;;;6.80;4.12;;;;;;;32.11;43.25;99972.09;143726;582;47002;-64
2021/07/18 08:00:16;;;;;;;9.55;4.12;;;;;;;32.06;43.48;99974.00;143729;628;45923;-65
2021/07/18 08:02:46;;;;;;;9.32;4.78;;;;;;;32.07;43.97;99974.81;143727;579;47008;-65
2021/07/18 08:05:14;;;;;;;14.40;4.40;;;;;;;32.11;43.69;99970.16;143726;609;47002;-65
2021/07/18 08:07:41;;;;;;;5.82;3.70;;;;;;;32.01;43.47;99971.53;143724;579;47002;-64
2021/07/18 08:10:12;;;;;;;8.73;4.05;;;;;;;31.93;44.18;99963.41;143727;588;45923;-64
2021/07/18 08:12:40;;;;;;;10.95;4.85;;;;;;;31.82;44.42;99963.16;143729;570;47004;-65
2021/07/18 08:15:08;;;;;;;7.45;4.03;;;;;;;31.89;43.84;99966.91;143726;599;47010;-64
2021/07/18 08:17:37;;;;;;;10.65;4.28;;;;;;;32.01;43.73;99971.53;143726;598;47004;-65
2021/07/18 08:20:12;;;;;;;6.80;4.12;;;;;;;32.04;43.66;99967.22;143729;596;45919;-64
2021/07/18 08:22:39;;;;;;;7.95;3.87;;;;;;;32.08;42.37;99973.66;143728;600;47004;-67
2021/07/18 08:25:07;;;;;;;14.93;5.28;;;;;;;31.94;42.15;99974.12;143725;621;48010;-64
2021/07/18 08:27:35;;;;;;;7.20;3.70;;;;;;;31.92;42.57;99992.34;143723;573;47003;-65
2021/07/18 08:30:04;;;;;;;6.90;3.67;;;;;;;31.89;42.88;99980.78;143719;586;49002;-71
2021/07/18 08:32:31;;;;;;;3.90;3.30;;;;;;;32.07;41.76;99994.25;143731;618;46002;-65
2021/07/18 08:34:59;;;;;;;8.93;4.32;;;;;;;32.18;41.63;99991.72;143729;578;46926;-64
2021/07/18 08:37:27;;;;;;;10.55;4.22;;;;;;;32.15;42.65;99998.78;143728;576;47002;-66
2021/07/18 08:39:54;;;;;;;10.20;4.18;;;;;;;32.09;41.48;99993.87;143725;618;49004;-65
2021/07/18 08:42:22;;;;;;;7.62;4.72;;;;;;;32.15;41.27;100007.13;143731;610;47004;-65
2021/07/18 08:44:49;;;;;;;9.38;3.85;;;;;;;32.18;41.17;100000.06;143720;597;48016;-65
2021/07/18 08:47:18;;;;;;;5.35;4.12;;;;;;;32.24;41.37;100006.91;143725;581;48002;-65
2021/07/18 08:49:45;;;;;;;6.57;3.95;;;;;;;32.18;40.60;100009.19;143728;575;45925;-64
2021/07/18 08:52:12;;;;;;;5.87;3.65;;;;;;;32.24;40.61;99995.00;143728;636;47016;-64
2021/07/18 08:54:39;;;;;;;6.93;4.00;;;;;;;32.37;40.39;99995.72;143723;610;48002;-65
2021/07/18 08:57:08;;;;;;;8.80;4.05;;;;;;;32.44;40.92;100002.22;143725;595;47004;-65
2021/07/18 08:59:35;;;;;;;10.40;3.87;;;;;;;32.47;39.89;99993.16;143722;569;52002;-65
2021/07/18 09:02:02;;;;;;;10.82;4.40;;;;;;;32.47;39.97;99986.78;143723;645;50002;-64
2021/07/18 09:04:29;;;;;;;8.63;4.28;;;;;;;32.55;39.79;99998.84;143726;635;47011;-65
2021/07/18 09:07:07;;;;;;;8.30;5.03;;;;;;;32.57;39.62;99996.50;143728;573;47004;-65
2021/07/18 09:09:35;;;;;;;6.93;3.83;;;;;;;32.53;39.87;99985.31;143728;569;46002;-65
2021/07/18 09:12:07;;;;;;;7.72;4.10;;;;;;;32.57;40.17;99983.41;143729;611;47004;-65
2021/07/18 09:14:39;;;;;;;10.00;4.45;;;;;;;32.65;39.28;99982.38;143725;572;48010;-64
2021/07/18 09:17:11;;;;;;;7.68;4.37;;;;;;;32.78;38.79;99980.25;143727;573;47002;-64
2021/07/18 09:19:39;;;;;;;6.85;4.82;;;;;;;32.90;38.62;99986.81;143717;595;49008;-65
2021/07/18 09:22:32;;;;;;;5.95;4.07;;;;;;;32.95;38.56;99987.31;143727;651;47000;-64
2021/07/18 09:25:02;;;;;;;10.52;3.85;;;;;;;32.90;38.04;99996.00;143727;669;47010;-64
2021/07/18 09:27:30;;;;;;;8.65;4.12;;;;;;;32.91;38.64;99992.03;143720;579;48002;-66
2021/07/18 09:30:15;;;;;;;13.13;4.35;;;;;;;32.96;38.15;99988.94;143727;639;45921;-65
2021/07/18 09:32:46;;;;;;;10.07;4.15;;;;;;;33.05;38.44;99993.47;143729;580;48004;-65
2021/07/18 09:35:16;;;;;;;9.70;4.18;;;;;;;33.10;38.32;99995.91;143727;570;47008;-65
2021/07/18 09:37:46;;;;;;;7.00;4.00;;;;;;;33.16;39.00;100000.00;143726;658;47002;-65
2021/07/18 09:40:20;;;;;;;5.22;4.05;;;;;;;33.26;37.53;99993.03;143728;610;45923;-65
2021/07/18 09:42:54;;;;;;;;;;;;;;;33.36;38.25;99986.06;143732;975;47011;-65
2021/07/18 09:45:40;;;;;;;6.22;4.22;;;;;;;33.40;38.56;99993.28;143729;634;48010;-64
2021/07/18 09:48:40;;;;;;;9.50;4.32;;;;;;;33.48;38.49;99988.63;143721;598;50002;-64
2021/07/18 09:51:12;;;;;;;7.97;4.05;;;;;;;33.56;38.38;99989.53;143725;584;47002;-66
2021/07/18 09:53:40;;;;;;;8.65;4.55;;;;;;;33.57;39.62;99993.94;143727;585;48002;-64
2021/07/18 09:56:17;;;;;;;8.40;5.03;;;;;;;33.49;40.29;99986.66;143731;574;46002;-65
2021/07/18 09:58:54;;;;;;;7.82;5.28;;;;;;;33.60;40.54;99992.41;143720;569;50004;-65
2021/07/18 10:01:23;;;;;;;12.82;5.60;;;;;;;33.56;39.43;99984.81;143731;569;46004;-66
2021/07/18 10:03:52;;;;;;;9.63;5.85;;;;;;;33.61;39.67;99985.66;143715;631;49013;-65
2021/07/18 10:06:25;;;;;;;9.27;5.82;;;;;;;33.65;40.67;99976.19;143730;665;46006;-65
2021/07/18 10:09:05;;;;;;;11.20;6.65;;;;;;;33.63;40.81;99974.94;143726;588;47004;-65
2021/07/18 10:11:33;;;;;;;9.80;6.05;;;;;;;33.67;40.22;99971.03;143730;595;45918;-64
2021/07/18 10:14:00;;;;;;;7.00;5.85;;;;;;;33.64;40.64;99970.97;143726;649;48004;-64
2021/07/18 10:16:29;;;;;;;10.43;6.62;;;;;;;33.71;40.07;99969.09;143726;579;47012;-65
2021/07/18 10:18:56;;;;;;;9.63;6.40;;;;;;;33.76;39.85;99965.19;143725;625;49007;-64
2021/07/18 10:21:29;;;;;;;10.82;6.10;;;;;;;33.69;40.31;99967.88;143727;697;46004;-64
2021/07/18 10:23:57;;;;;;;10.80;5.85;;;;;;;33.62;40.54;99965.00;143722;603;49004;-64
2021/07/18 10:26:29;;;;;;;11.05;6.68;;;;;;;33.58;40.96;99955.78;143727;596;47010;-64
2021/07/18 10:28:57;;;;;;;10.63;6.87;;;;;;;33.45;41.93;99958.75;143724;567;49004;-65
2021/07/18 10:31:50;;;;;;;9.77;6.65;;;;;;;33.54;42.54;99966.84;143726;611;45926;-65
2021/07/18 10:34:18;;;;;;;9.50;7.72;;;;;;;33.47;43.48;99948.06;143725;653;48006;-64
2021/07/18 10:36:50;;;;;;;8.48;7.47;;;;;;;33.53;43.60;99954.13;143726;628;47010;-64
2021/07/18 10:39:41;;;;;;;12.25;8.45;;;;;;;33.54;44.63;99941.78;143726;568;47004;-64
2021/07/18 10:42:33;;;;;;;12.02;9.43;;;;;;;33.66;44.98;99937.97;143725;572;47002;-64
2021/07/18 10:45:20;;;;;;;13.10;10.50;;;;;;;33.81;44.22;99937.00;143727;648;47004;-65
2021/07/18 10:48:06;;;;;;;15.18;10.77;;;;;;;33.90;43.40;99938.75;143726;593;47010;-64
2021/07/18 10:50:58;;;;;;;13.73;11.07;;;;;;;34.03;42.50;99928.19;143723;580;49002;-65
2021/07/18 10:53:31;;;;;;;17.40;10.82;;;;;;;34.19;43.11;99922.38;143728;572;45923;-66
2021/07/18 10:56:01;;;;;;;15.35;11.68;;;;;;;34.25;42.87;99926.44;143722;699;47002;-65
2021/07/18 10:58:43;;;;;;;16.37;10.75;;;;;;;34.23;39.93;99934.38;143720;619;48010;-65
2021/07/18 11:01:31;;;;;;;10.80;9.45;;;;;;;34.24;39.62;99911.69;143726;677;47002;-64
2021/07/18 11:03:59;;;;;;;14.70;11.52;;;;;;;34.35;39.08;99906.25;143724;613;47002;-64
2021/07/18 11:06:37;;;;;;;15.48;10.15;;;;;;;34.39;38.78;99903.50;143728;585;47016;-65
2021/07/18 11:09:22;;;;;;;15.43;10.73;;;;;;;34.46;37.40;99907.22;143719;611;49012;-66
2021/07/18 11:11:52;;;;;;;15.57;9.68;;;;;;;34.56;37.74;99902.09;143726;625;47002;-64
2021/07/18 11:14:39;;;;;;;13.27;9.25;;;;;;;34.55;36.33;99897.72;143723;590;49004;-65
2021/07/18 11:17:24;;;;;;;12.45;8.10;;;;;;;34.52;35.95;99901.25;143727;623;48002;-64
2021/07/18 11:20:02;;;;;;;8.85;7.87;;;;;;;34.58;36.43;99892.19;143727;582;47008;-65
2021/07/18 11:22:57;;;;;;;12.93;8.80;;;;;;;34.66;35.66;99895.03;143727;590;46010;-65
2021/07/18 11:25:42;;;;;;;12.00;8.63;;;;;;;34.72;35.59;99887.94;143724;589;46002;-64
2021/07/18 11:28:50;;;;;;;29.90;26.25;;;;;;;34.82;34.96;99878.84;143730;632;47004;-64
2021/07/18 11:31:25;;;;;;;36.33;31.77;;;;;;;34.97;34.20;99871.44;143726;572;47010;-66
2021/07/18 11:34:00;;;;;;;14.43;9.40;;;;;;;35.05;32.63;99872.28;143727;630;47004;-65
2021/07/18 11:36:53;;;;;;;14.23;9.13;;;;;;;35.07;32.62;99875.50;143727;620;45918;-64
2021/07/18 11:39:22;;;;;;;10.90;7.87;;;;;;;34.98;32.03;99881.41;143725;705;47010;-67